Time;durP1;ratioP1;P1;durP2;ratioP2;P2;SDS_P1;SDS_P2;PMS_P1;PMS_P2;Temp;Humidity;BMP_temperature;BMP_pressure;BME280_temperature;BME280_humidity;BME280_pressure;Samples;Min_cycle;Max_cycle;Signal;HPM_P1;HPM_P2
2022/11/15 00:00:52;;;;;;;16.95;11.25;;;;;;;19.49;45.78;101644.58;1732129;82;21069;-85
2022/11/15 00:03:24;;;;;;;15.80;9.53;;;;;;;19.49;45.77;101643.20;1710280;82;21092;-85
2022/11/15 00:05:50;;;;;;;17.17;10.38;;;;;;;19.47;45.78;101637.98;1701852;83;21071;-86
2022/11/15 00:08:16;;;;;;;16.35;10.48;;;;;;;19.48;45.75;101644.30;1676383;85;21043;-86
2022/11/15 00:10:43;;;;;;;15.80;9.50;;;;;;;19.48;45.75;101643.75;1676152;84;21483;-86
2022/11/15 00:13:11;;;;;;;16.32;9.78;;;;;;;19.47;45.72;101637.98;1659007;85;21016;-86
2022/11/15 00:15:39;;;;;;;15.03;9.50;;;;;;;19.47;45.71;101637.16;1658974;85;21107;-85
2022/11/15 00:18:05;;;;;;;14.95;10.20;;;;;;;19.46;45.68;101630.81;1658825;85;21071;-85
2022/11/15 00:20:34;;;;;;;16.27;9.43;;;;;;;19.47;45.68;101635.78;1641847;86;21098;-86
2022/11/15 00:23:00;;;;;;;14.07;9.45;;;;;;;19.46;45.65;101625.84;1641484;85;21774;-86
2022/11/15 00:25:27;;;;;;;14.87;9.45;;;;;;;19.46;45.64;101629.44;1658715;85;21020;-86
2022/11/15 00:27:57;;;;;;;15.50;9.28;;;;;;;19.46;45.59;101631.37;1659076;85;21113;-86
2022/11/15 00:30:23;;;;;;;15.50;9.28;;;;;;;19.45;45.58;101633.85;1659064;86;21503;-85
2022/11/15 00:32:50;;;;;;;14.50;9.48;;;;;;;19.45;45.57;101631.09;1658898;85;21035;-86
2022/11/15 00:35:16;;;;;;;14.80;9.30;;;;;;;19.44;45.56;101622.54;1659013;85;21150;-86
2022/11/15 00:37:43;;;;;;;15.15;9.60;;;;;;;19.45;45.56;101622.81;1663595;85;21062;-86
2022/11/15 00:40:12;;;;;;;14.70;9.08;;;;;;;19.45;45.53;101621.44;1669852;85;21093;-86
2022/11/15 00:42:39;;;;;;;14.85;8.95;;;;;;;19.44;45.53;101612.87;1685052;85;21056;-85
2022/11/15 00:45:10;;;;;;;14.25;9.10;;;;;;;19.43;45.51;101618.98;1669863;85;21099;-85
2022/11/15 00:47:37;;;;;;;12.37;8.60;;;;;;;19.43;45.50;101603.81;1684827;84;21112;-86
2022/11/15 00:50:04;;;;;;;15.45;8.58;;;;;;;19.43;45.50;101611.26;1669979;85;21012;-84
2022/11/15 00:52:30;;;;;;;15.15;9.28;;;;;;;19.44;45.47;101603.22;1685055;85;20926;-86
2022/11/15 00:54:57;;;;;;;13.53;8.88;;;;;;;19.43;45.47;101596.91;1669825;86;21063;-86
2022/11/15 00:57:23;;;;;;;13.50;8.93;;;;;;;19.42;45.44;101591.64;1684870;85;21028;-84
2022/11/15 00:59:49;;;;;;;12.80;8.08;;;;;;;19.43;45.40;101593.33;1670202;85;21098;-86
2022/11/15 01:02:16;;;;;;;13.72;8.35;;;;;;;19.42;45.39;101591.64;1684786;84;21128;-86
2022/11/15 01:04:43;;;;;;;13.05;8.25;;;;;;;19.42;45.36;101591.64;1650424;86;34702;-84
2022/11/15 01:07:15;;;;;;;12.90;8.33;;;;;;;19.41;45.34;101588.60;1684765;83;21139;-86
2022/11/15 01:09:41;;;;;;;12.45;7.85;;;;;;;19.41;45.31;101583.91;1680863;85;21082;-86
2022/11/15 01:12:08;;;;;;;14.53;8.95;;;;;;;19.41;45.31;101590.81;1685732;84;21117;-86
2022/11/15 01:14:34;;;;;;;13.48;8.40;;;;;;;19.41;45.31;101589.98;1668931;85;21096;-86
2022/11/15 01:17:00;;;;;;;12.00;8.08;;;;;;;19.40;45.32;101585.02;1603592;88;21561;-85
2022/11/15 01:19:26;;;;;;;13.10;7.75;;;;;;;19.40;45.30;101585.02;1651846;86;21102;-83
2022/11/15 01:21:53;;;;;;;12.58;8.25;;;;;;;19.40;45.28;101582.81;1624563;87;21061;-86
2022/11/15 01:24:19;;;;;;;15.45;8.68;;;;;;;19.41;45.30;101583.08;1651341;85;21190;-86
2022/11/15 01:26:45;;;;;;;12.93;8.35;;;;;;;19.40;45.27;101582.81;1624368;86;21528;-86
2022/11/15 01:29:12;;;;;;;12.28;8.28;;;;;;;19.40;45.27;101584.19;1651182;86;21049;-86
2022/11/15 01:31:38;;;;;;;12.45;7.80;;;;;;;19.41;45.24;101587.22;1623917;86;21124;-85
2022/11/15 01:34:04;;;;;;;10.55;7.20;;;;;;;19.38;45.22;101574.84;1651602;85;21532;-86
2022/11/15 01:36:30;;;;;;;13.35;8.33;;;;;;;19.38;45.21;101581.74;1623851;87;22114;-86
2022/11/15 01:38:57;;;;;;;12.73;8.10;;;;;;;19.39;45.21;101581.98;1650919;85;21073;-85
2022/11/15 01:41:29;;;;;;;11.35;7.80;;;;;;;19.39;45.20;101585.33;1623933;86;21432;-86
2022/11/15 01:44:17;;;;;;;12.90;8.08;;;;;;;19.38;45.19;101580.36;1651251;86;21511;-86
2022/11/15 01:46:45;;;;;;;11.28;8.00;;;;;;;19.39;45.17;101585.33;1619764;86;21074;-85
2022/11/15 01:49:14;;;;;;;10.95;7.60;;;;;;;19.38;45.17;101576.78;1651248;86;21213;-86
2022/11/15 01:51:41;;;;;;;10.58;7.17;;;;;;;19.36;45.15;101570.71;1640434;86;21056;-84
2022/11/15 01:54:10;;;;;;;11.73;7.67;;;;;;;19.36;45.15;101570.16;1660685;84;21117;-85
2022/11/15 01:56:47;;;;;;;12.93;7.70;;;;;;;19.37;45.13;101569.61;1684660;85;21147;-85
2022/11/15 01:59:13;;;;;;;11.55;7.35;;;;;;;19.37;45.13;101567.67;1683870;85;21026;-85
2022/11/15 02:01:39;;;;;;;12.03;7.47;;;;;;;19.36;45.11;101559.67;1684805;85;21148;-85
2022/11/15 02:04:22;;;;;;;12.47;7.62;;;;;;;19.36;45.09;101563.81;1663047;85;21053;-85
2022/11/15 02:06:48;;;;;;;11.45;7.17;;;;;;;19.36;45.09;101566.57;1684189;83;21089;-85
2022/11/15 02:09:15;;;;;;;11.75;7.20;;;;;;;19.35;45.09;101552.53;1682606;85;21113;-85
2022/11/15 02:11:41;;;;;;;11.78;6.85;;;;;;;19.35;45.06;101555.30;1678894;84;21051;-84
2022/11/15 02:14:07;;;;;;;10.65;7.25;;;;;;;19.34;45.07;101546.74;1659280;85;21873;-84
2022/11/15 02:17:16;;;;;;;11.73;7.12;;;;;;;19.35;45.07;101550.57;1652119;86;21042;-85
2022/11/15 02:20:26;;;;;;;11.38;7.20;;;;;;;19.35;45.05;101553.33;1652229;86;21152;-86
2022/11/15 02:23:34;;;;;;;10.78;7.10;;;;;;;19.33;45.01;101545.91;1652478;85;21059;-86
2022/11/15 02:26:57;;;;;;;10.15;7.00;;;;;;;19.32;44.97;101542.88;1681055;85;21553;-86
2022/11/15 02:29:58;;;;;;;10.43;6.53;;;;;;;19.31;44.94;101541.81;1626452;87;21335;-86
2022/11/15 02:32:42;;;;;;;11.30;6.75;;;;;;;19.29;44.93;101539.89;1655040;86;21056;-85
2022/11/15 02:35:23;;;;;;;10.35;7.00;;;;;;;19.29;44.91;101538.51;1655960;86;21061;-85
2022/11/15 02:37:57;;;;;;;;;;;;;;;19.27;44.92;101533.27;1658235;86;21037;-86
2022/11/15 02:40:41;;;;;;;9.10;6.25;;;;;;;19.28;44.93;101534.09;1700725;83;20170;-86
2022/11/15 02:46:04;;;;;;;10.05;6.45;;;;;;;19.26;44.96;101529.45;1700961;84;21003;-85
2022/11/15 02:48:30;;;;;;;9.50;6.35;;;;;;;19.24;44.98;101526.97;1724939;82;21273;-86
2022/11/15 02:50:57;;;;;;;10.30;6.20;;;;;;;19.24;44.97;101532.48;1730254;82;21113;-86
2022/11/15 02:53:27;;;;;;;9.53;6.33;;;;;;;19.25;44.97;101529.17;1709896;82;21387;-85
2022/11/15 02:55:53;;;;;;;8.90;6.00;;;;;;;19.26;44.99;101523.92;1709490;82;21067;-85
2022/11/15 02:58:50;;;;;;;10.43;6.00;;;;;;;19.25;44.98;101523.66;1709476;83;21038;-85
2022/11/15 03:01:34;;;;;;;8.98;6.03;;;;;;;19.25;44.99;101523.09;1730456;82;21035;-86
2022/11/15 03:04:36;;;;;;;10.95;5.90;;;;;;;19.26;44.96;101525.30;1720181;82;22251;-85
2022/11/15 03:07:20;;;;;;;12.30;6.85;;;;;;;19.26;44.94;101524.75;1653938;85;21473;-85
2022/11/15 03:10:06;;;;;;;10.70;6.40;;;;;;;19.25;44.92;101527.23;1700038;83;21094;-86
2022/11/15 03:12:56;;;;;;;8.20;6.08;;;;;;;19.25;44.91;101520.89;1632984;86;21077;-84
2022/11/15 03:15:31;;;;;;;9.37;5.80;;;;;;;19.24;44.91;101520.63;1699505;82;21495;-86
2022/11/15 03:18:07;;;;;;;9.23;6.17;;;;;;;19.24;44.91;101520.63;1698156;83;21369;-85
2022/11/15 03:20:33;;;;;;;11.25;6.62;;;;;;;19.24;44.87;101519.24;1654111;85;21074;-86
2022/11/15 03:23:04;;;;;;;9.43;5.72;;;;;;;19.24;44.86;101518.69;1699312;83;22046;-85
2022/11/15 03:25:32;;;;;;;9.78;6.22;;;;;;;19.24;44.87;101516.48;1654026;85;21480;-86
2022/11/15 03:27:58;;;;;;;9.15;5.90;;;;;;;19.24;44.86;101515.93;1726822;82;21033;-86
2022/11/15 03:30:25;;;;;;;10.03;6.30;;;;;;;19.24;44.85;101507.66;1750902;82;21432;-85
2022/11/15 03:32:56;;;;;;;9.05;5.83;;;;;;;19.25;44.83;101514.82;1730296;82;21060;-85
2022/11/15 03:35:28;;;;;;;9.78;6.05;;;;;;;19.25;44.82;101509.31;1751158;82;21731;-86
2022/11/15 03:38:24;;;;;;;10.05;5.90;;;;;;;19.24;44.80;101514.55;1750778;82;21036;-85
2022/11/15 03:40:59;;;;;;;9.08;5.58;;;;;;;19.24;44.80;101510.41;1732939;82;21446;-85
2022/11/15 03:43:46;;;;;;;8.90;5.97;;;;;;;19.23;44.78;101501.86;1725476;82;21474;-86
2022/11/15 03:46:23;;;;;;;11.55;6.33;;;;;;;19.23;44.74;101495.52;1725619;83;21063;-86
2022/11/15 03:48:56;;;;;;;7.72;5.60;;;;;;;19.24;44.74;101498.55;1723911;82;21998;-86
2022/11/15 03:51:22;;;;;;;8.90;5.62;;;;;;;19.23;44.73;101502.42;1705531;83;21122;-85
2022/11/15 03:53:49;;;;;;;7.75;5.20;;;;;;;19.23;44.73;101499.66;1725646;82;21039;-86
2022/11/15 03:56:15;;;;;;;10.05;6.30;;;;;;;19.22;44.71;101494.73;1725485;82;21114;-86
2022/11/15 03:58:41;;;;;;;9.55;5.65;;;;;;;19.22;44.72;101494.73;1725799;82;21533;-86
2022/11/15 04:01:07;;;;;;;9.63;5.50;;;;;;;19.22;44.70;101486.45;1726048;82;21517;-86
2022/11/15 04:03:34;;;;;;;8.13;5.40;;;;;;;19.22;44.68;101492.52;1704838;83;21071;-85
2022/11/15 04:06:00;;;;;;;8.95;5.70;;;;;;;19.23;44.68;101494.97;1721646;81;21688;-86
2022/11/15 04:08:26;;;;;;;10.82;6.00;;;;;;;19.22;44.67;101487.83;1702508;81;21028;-86
2022/11/15 04:10:53;;;;;;;8.88;5.45;;;;;;;19.23;44.65;101485.86;1727424;81;21084;-82
2022/11/15 04:13:19;;;;;;;10.20;5.95;;;;;;;19.22;44.64;101489.20;1715606;81;21177;-85
2022/11/15 04:15:45;;;;;;;8.38;5.58;;;;;;;19.24;44.64;101493.86;1733416;81;21021;-86
2022/11/15 04:18:12;;;;;;;9.83;6.20;;;;;;;19.24;44.62;101488.89;1728955;83;21444;-85
2022/11/15 04:26:15;;;;;;;7.92;5.80;;;;;;;19.24;44.58;101470.41;1728914;83;21765;-85
2022/11/15 04:31:26;;;;;;;8.73;5.75;;;;;;;19.26;44.53;101475.09;1729336;83;21027;-84
2022/11/15 04:33:53;;;;;;;7.72;5.25;;;;;;;19.29;44.50;101471.74;1728914;82;21045;-86
2022/11/15 04:39:05;;;;;;;6.95;4.80;;;;;;;19.35;44.46;101472.52;1729105;83;21398;-86
2022/11/15 04:41:31;;;;;;;7.65;4.80;;;;;;;19.40;44.45;101465.53;1729251;83;21005;-86
2022/11/15 04:43:57;;;;;;;7.15;5.30;;;;;;;19.46;44.41;101461.64;1729419;83;20966;-86
2022/11/15 04:46:24;;;;;;;6.92;4.33;;;;;;;19.52;44.35;101456.31;1728993;83;21509;-85
2022/11/15 04:48:51;;;;;;;8.15;4.95;;;;;;;19.58;44.34;101455.97;1729414;83;21085;-85
2022/11/15 04:51:17;;;;;;;8.08;5.17;;;;;;;19.65;44.28;101452.84;1729836;81;21812;-86
2022/11/15 04:53:44;;;;;;;9.68;5.10;;;;;;;19.74;44.20;101450.24;1730275;83;21380;-86
2022/11/15 04:56:10;;;;;;;6.95;4.90;;;;;;;19.82;44.12;101450.41;1730472;82;21417;-86
2022/11/15 04:58:37;;;;;;;7.47;4.80;;;;;;;19.91;44.05;101454.16;1730130;82;21056;-86
2022/11/15 05:01:11;;;;;;;8.13;5.20;;;;;;;20.00;43.95;101452.92;1730216;82;21544;-86
2022/11/15 05:06:22;;;;;;;7.47;4.65;;;;;;;20.22;43.75;101449.02;1730308;83;21022;-85
2022/11/15 05:08:49;;;;;;;5.78;4.42;;;;;;;20.32;43.60;101457.19;1729689;83;21108;-84
2022/11/15 05:11:15;;;;;;;7.65;4.67;;;;;;;20.44;43.52;101455.34;1730224;81;21059;-83
2022/11/15 05:13:42;;;;;;;7.47;5.00;;;;;;;20.55;43.42;101457.36;1730488;83;21528;-84
2022/11/15 05:16:08;;;;;;;8.03;4.65;;;;;;;20.63;43.28;101451.97;1730539;82;21028;-84
2022/11/15 05:18:35;;;;;;;8.10;5.28;;;;;;;20.70;43.14;101456.57;1730803;82;20987;-85
2022/11/15 05:21:15;;;;;;;6.37;4.58;;;;;;;20.77;43.02;101450.08;1730689;83;21045;-84
2022/11/15 05:23:41;;;;;;;8.43;5.03;;;;;;;20.85;42.87;101453.52;1730663;82;21572;-85
2022/11/15 05:26:08;;;;;;;7.67;4.83;;;;;;;20.92;42.74;101458.09;1730213;83;21339;-84
2022/11/15 05:28:36;;;;;;;7.25;4.70;;;;;;;21.00;42.59;101459.36;1715882;82;21135;-84
2022/11/15 05:31:14;;;;;;;8.93;5.25;;;;;;;21.07;42.45;101458.95;1701604;82;21492;-84
2022/11/15 05:33:41;;;;;;;9.70;5.15;;;;;;;21.13;42.34;101456.39;1710533;81;21074;-83
2022/11/15 05:36:41;;;;;;;11.12;5.03;;;;;;;21.19;42.15;101459.30;1732550;81;21049;-83
2022/11/15 05:39:08;;;;;;;11.10;5.27;;;;;;;21.25;42.02;101459.47;1707725;83;21575;-84
2022/11/15 05:41:51;;;;;;;13.05;5.35;;;;;;;21.30;41.85;101456.02;1699118;84;21155;-85
2022/11/15 05:44:20;;;;;;;26.85;6.10;;;;;;;21.34;41.65;101458.43;1718286;82;21053;-84
2022/11/15 05:46:46;;;;;;;21.07;6.45;;;;;;;21.38;41.48;101455.89;1730069;82;21014;-79
2022/11/15 05:49:15;;;;;;;19.12;6.15;;;;;;;21.42;41.36;101461.07;1727883;81;21029;-86
2022/11/15 05:51:42;;;;;;;18.23;6.33;;;;;;;21.46;41.27;101459.89;1721083;81;21079;-80
2022/11/15 05:54:08;;;;;;;17.87;6.00;;;;;;;21.48;41.04;101459.00;1736111;80;21086;-82
2022/11/15 05:56:38;;;;;;;19.00;5.72;;;;;;;21.49;41.04;101458.70;1713798;81;21097;-87
2022/11/15 05:59:04;;;;;;;13.58;6.22;;;;;;;21.50;40.92;101464.50;1725915;81;21013;-81
2022/11/15 06:01:31;;;;;;;13.13;5.83;;;;;;;21.51;40.97;101459.80;1735249;81;21537;-83
2022/11/15 06:03:57;;;;;;;20.88;7.08;;;;;;;21.51;40.84;101461.17;1714280;83;21064;-82
2022/11/15 06:06:23;;;;;;;13.20;6.17;;;;;;;21.50;40.82;101458.97;1714529;81;21152;-84
2022/11/15 06:08:49;;;;;;;17.23;6.53;;;;;;;21.50;40.73;101462.30;1728066;81;21566;-84
2022/11/15 06:11:16;;;;;;;19.32;6.25;;;;;;;21.53;40.59;101463.05;1719978;80;21130;-88
2022/11/15 06:13:42;;;;;;;17.77;6.30;;;;;;;21.55;40.51;101463.02;1738138;80;21052;-85
2022/11/15 06:16:09;;;;;;;17.80;6.33;;;;;;;21.57;40.69;101459.36;1740870;80;21183;-88
2022/11/15 06:18:35;;;;;;;20.75;6.22;;;;;;;21.61;40.75;101466.48;1717635;80;21044;-86
2022/11/15 06:21:01;;;;;;;19.27;5.60;;;;;;;21.65;40.78;101468.33;1760282;80;21606;-91
2022/11/15 06:23:29;;;;;;;21.17;6.83;;;;;;;21.69;40.81;101465.76;1749610;80;21111;-89
2022/11/15 06:25:58;;;;;;;15.13;5.55;;;;;;;21.72;40.75;101458.23;1723778;81;21496;-86
2022/11/15 06:28:24;;;;;;;14.20;6.20;;;;;;;21.74;40.71;101457.34;1740077;80;21102;-85
2022/11/15 06:30:51;;;;;;;19.37;5.83;;;;;;;21.77;40.64;101454.77;1734069;80;21716;-87
2022/11/15 06:33:17;;;;;;;13.80;6.20;;;;;;;21.80;40.58;101463.05;1726061;81;21067;-88
2022/11/15 06:35:43;;;;;;;14.60;5.97;;;;;;;21.82;40.51;101462.16;1723927;82;21072;-87
2022/11/15 06:38:10;;;;;;;13.45;5.87;;;;;;;21.84;40.42;101466.27;1736105;80;21052;-86
2022/11/15 06:40:38;;;;;;;14.45;5.28;;;;;;;21.86;40.39;101465.38;1733243;80;21585;-82
2022/11/15 06:43:04;;;;;;;16.93;5.90;;;;;;;21.89;40.36;101466.73;1748187;80;21791;-84
2022/11/15 06:45:31;;;;;;;11.80;5.58;;;;;;;21.91;40.24;101466.40;1758486;80;21168;-85
2022/11/15 06:47:57;;;;;;;10.95;5.37;;;;;;;21.92;40.04;101466.66;1737710;80;21073;-80
2022/11/15 06:50:24;;;;;;;11.25;5.17;;;;;;;21.94;40.03;101463.06;1748012;80;21031;-83
2022/11/15 06:52:51;;;;;;;14.87;5.78;;;;;;;21.94;40.04;101463.06;1742952;80;21609;-87
2022/11/15 06:55:17;;;;;;;19.87;5.97;;;;;;;21.94;40.16;101461.68;1746250;80;21887;-81
2022/11/15 06:57:49;;;;;;;19.23;6.12;;;;;;;21.92;40.16;101463.89;1752884;80;21852;-85
2022/11/15 07:00:17;;;;;;;19.98;5.78;;;;;;;21.92;40.30;101470.29;1749654;80;21078;-85
2022/11/15 07:02:43;;;;;;;22.55;6.20;;;;;;;21.92;40.41;101463.36;1743366;80;21052;-82
2022/11/15 07:05:10;;;;;;;16.77;5.85;;;;;;;21.94;40.58;101457.52;1740312;80;21056;-80
2022/11/15 07:07:37;;;;;;;22.00;5.55;;;;;;;21.95;40.69;101453.59;1745570;80;21111;-83
2022/11/15 07:10:04;;;;;;;20.60;5.75;;;;;;;21.99;40.87;101458.20;1752492;80;21552;-80
2022/11/15 07:12:30;;;;;;;17.45;6.30;;;;;;;22.00;41.12;101452.11;1712499;80;21052;-82
2022/11/15 07:14:57;;;;;;;15.13;5.22;;;;;;;22.02;41.22;101456.78;1691858;83;21022;-82
2022/11/15 07:17:23;;;;;;;14.40;5.05;;;;;;;22.03;41.39;101450.91;1686930;83;21037;-81
2022/11/15 07:19:49;;;;;;;16.67;4.92;;;;;;;22.05;41.46;101457.54;1678299;83;21279;-82
2022/11/15 07:22:16;;;;;;;19.62;4.97;;;;;;;22.06;41.59;101446.72;1695991;82;21076;-82
2022/11/15 07:24:42;;;;;;;20.08;5.20;;;;;;;22.08;41.78;101449.98;1689323;83;21620;-80
2022/11/15 07:27:09;;;;;;;18.67;5.72;;;;;;;22.10;41.87;101442.19;1668923;84;21548;-83
2022/11/15 07:29:50;;;;;;;19.77;5.05;;;;;;;22.12;41.95;101446.83;1688613;83;21439;-84
2022/11/15 07:32:05;;;;;;;17.40;5.10;;;;;;;22.12;42.01;101446.27;1673549;82;21986;-81
2022/11/15 07:34:37;;;;;;;9.18;4.53;;;;;;;22.10;42.08;101444.39;1684488;83;21002;-83
2022/11/15 07:37:03;;;;;;;22.67;5.12;;;;;;;22.10;42.13;101443.57;1687864;83;21073;-81
2022/11/15 07:39:30;;;;;;;16.67;5.00;;;;;;;22.07;42.19;101443.61;1687122;83;21170;-83
2022/11/15 07:42:52;;;;;;;18.17;5.10;;;;;;;22.06;42.27;101439.22;1688846;83;21599;-85
2022/11/15 07:44:25;;;;;;;20.45;5.00;;;;;;;22.06;42.34;101439.79;1686471;83;21591;-85
2022/11/15 07:46:52;;;;;;;18.37;4.83;;;;;;;22.04;42.41;101440.65;1671176;83;21096;-86
2022/11/15 07:49:18;;;;;;;33.60;6.58;;;;;;;22.03;42.49;101439.00;1656467;84;21586;-83
2022/11/15 07:51:45;;;;;;;20.57;5.62;;;;;;;21.99;42.70;101436.60;1629175;85;21530;-84
2022/11/15 07:54:11;;;;;;;24.27;6.17;;;;;;;21.93;42.95;101441.46;1687508;83;21085;-84
2022/11/15 07:56:38;;;;;;;27.55;6.30;;;;;;;21.86;43.09;101440.45;1655843;85;21147;-82
2022/11/15 07:59:07;;;;;;;36.98;7.03;;;;;;;21.83;43.28;101445.23;1683008;82;21093;-85
2022/11/15 08:01:33;;;;;;;28.65;6.70;;;;;;;21.79;43.29;101441.45;1678941;83;21376;-82
2022/11/15 08:04:00;;;;;;;30.85;6.70;;;;;;;21.75;43.38;101445.14;1693266;83;21763;-85
2022/11/15 08:06:29;;;;;;;22.17;6.62;;;;;;;21.70;43.29;101436.94;1686415;82;21586;-86
2022/11/15 08:08:56;;;;;;;23.00;6.10;;;;;;;21.66;43.20;101436.75;1692285;83;21159;-85
2022/11/15 08:11:23;;;;;;;19.60;6.17;;;;;;;21.62;43.25;101430.19;1656365;84;21901;-89
2022/11/15 08:13:52;;;;;;;23.38;6.85;;;;;;;21.60;43.32;101431.05;1688411;82;21466;-90
2022/11/15 08:16:18;;;;;;;26.12;6.37;;;;;;;21.57;43.40;101433.06;1689387;83;21149;-89
2022/11/15 08:18:44;;;;;;;18.17;5.42;;;;;;;21.55;43.50;101430.36;1695914;82;22416;-89
2022/11/15 08:21:11;;;;;;;20.70;5.65;;;;;;;21.52;43.60;101430.95;1692640;83;21619;-87
2022/11/15 08:23:38;;;;;;;18.87;5.78;;;;;;;21.49;43.69;101429.63;1684394;83;21170;-85
2022/11/15 08:26:04;;;;;;;16.93;5.60;;;;;;;21.47;43.81;101429.14;1689000;83;21179;-89
2022/11/15 08:28:31;;;;;;;26.40;5.53;;;;;;;21.45;43.89;101421.69;1671883;83;21624;-85
2022/11/15 08:30:57;;;;;;;17.50;6.35;;;;;;;21.41;43.96;101430.36;1686049;83;21240;-87
2022/11/15 08:33:24;;;;;;;16.17;5.87;;;;;;;21.39;44.04;101422.91;1684933;83;22267;-87
2022/11/15 08:35:50;;;;;;;15.90;5.78;;;;;;;21.38;44.09;101419.34;1689857;83;21064;-85
2022/11/15 08:38:17;;;;;;;19.82;6.08;;;;;;;21.38;44.14;101423.50;1690496;82;21099;-85
2022/11/15 08:40:43;;;;;;;15.35;5.85;;;;;;;21.41;44.18;101416.52;1690398;83;21064;-87
2022/11/15 08:43:10;;;;;;;17.40;5.25;;;;;;;21.43;44.17;101417.84;1696306;81;21884;-83
2022/11/15 08:45:36;;;;;;;16.42;5.62;;;;;;;21.48;44.19;101412.77;1698034;82;21136;-86
2022/11/15 08:48:03;;;;;;;13.03;5.25;;;;;;;21.52;44.15;101410.19;1693082;83;21034;-78
2022/11/15 08:50:32;;;;;;;21.57;5.90;;;;;;;21.59;44.15;101417.53;1693016;83;21091;-86
2022/11/15 08:53:08;;;;;;;21.82;6.00;;;;;;;21.65;44.40;101410.73;1688460;83;21595;-86
2022/11/15 08:55:37;;;;;;;20.40;6.20;;;;;;;21.72;44.46;101413.92;1690044;82;21048;-84
2022/11/15 08:58:10;;;;;;;30.15;6.55;;;;;;;21.81;44.41;101401.78;1693157;82;21552;-84
2022/11/15 09:00:36;;;;;;;21.60;6.42;;;;;;;21.88;44.47;101398.04;1689201;83;21589;-82
2022/11/15 09:03:12;;;;;;;28.35;8.00;;;;;;;21.93;44.55;101398.52;1686830;80;21571;-82
2022/11/15 09:05:38;;;;;;;24.82;8.30;;;;;;;21.95;44.36;101396.80;1687332;82;21123;-81
2022/11/15 09:08:05;;;;;;;29.20;7.62;;;;;;;21.95;44.29;101389.87;1695132;82;21070;-83
2022/11/15 09:10:34;;;;;;;20.20;7.20;;;;;;;21.94;44.14;101389.05;1693613;83;22243;-83
2022/11/15 09:13:01;;;;;;;28.92;7.12;;;;;;;21.97;44.14;101386.24;1697424;81;21628;-89
2022/11/15 09:15:27;;;;;;;23.60;7.65;;;;;;;21.97;44.15;101377.37;1718244;81;21429;-82
2022/11/15 09:18:00;;;;;;;20.00;6.72;;;;;;;22.01;44.17;101383.09;1720781;81;21071;-85
2022/11/15 09:20:26;;;;;;;21.80;6.45;;;;;;;21.99;44.21;101375.64;1720555;81;21045;-86
2022/11/15 09:23:02;;;;;;;17.17;6.10;;;;;;;21.99;44.46;101370.11;1723691;81;21034;-87
2022/11/15 09:25:34;;;;;;;15.93;7.08;;;;;;;21.97;44.48;101369.05;1687726;83;21505;-85
2022/11/15 09:28:07;;;;;;;16.93;6.55;;;;;;;21.97;44.51;101372.39;1657429;83;21054;-85
2022/11/15 09:30:40;;;;;;;20.25;6.22;;;;;;;21.94;44.55;101361.94;1719395;80;21102;-90
2022/11/15 09:33:13;;;;;;;13.30;6.35;;;;;;;21.92;44.55;101361.39;1715956;81;21098;-85
2022/11/15 09:35:45;;;;;;;20.80;6.85;;;;;;;21.90;44.57;101357.53;1719111;81;21087;-90
2022/11/15 09:38:18;;;;;;;21.02;7.80;;;;;;;21.88;44.60;101353.71;1722261;80;21612;-80
2022/11/15 09:40:55;;;;;;;21.42;7.47;;;;;;;21.88;44.61;101347.34;1722653;80;21271;-81
2022/11/15 09:44:04;;;;;;;17.85;6.97;;;;;;;21.90;44.79;101352.59;1711010;81;21096;-81
2022/11/15 09:46:50;;;;;;;24.30;7.85;;;;;;;21.88;45.21;101346.79;1719594;82;21052;-82
2022/11/15 09:49:24;;;;;;;20.25;10.10;;;;;;;21.80;44.81;101339.79;1722098;81;21559;-82
2022/11/15 09:56:35;;;;;;;16.30;8.10;;;;;;;21.27;44.34;101331.28;1712336;81;21754;-83
2022/11/15 09:59:47;;;;;;;20.37;9.43;;;;;;;21.19;44.66;101326.47;1716293;81;21074;-83
2022/11/15 10:02:45;;;;;;;19.52;8.00;;;;;;;21.30;44.67;101323.77;1721869;81;21088;-85
2022/11/15 10:12:07;;;;;;;18.30;7.67;;;;;;;21.62;44.43;101311.12;1772368;78;21102;-90
2022/11/15 10:15:08;;;;;;;18.37;7.22;;;;;;;21.81;44.24;101307.60;1769528;79;21102;-89
2022/11/15 10:17:43;;;;;;;18.95;7.15;;;;;;;21.91;44.17;101301.00;1773446;78;21072;-91
2022/11/15 10:26:28;;;;;;;14.83;6.60;;;;;;;22.19;44.03;101288.67;1743704;79;20986;-90
2022/11/15 10:28:56;;;;;;;17.42;6.60;;;;;;;22.26;44.00;101284.08;1777904;79;21043;-91
2022/11/15 10:31:27;;;;;;;14.58;6.20;;;;;;;22.32;43.98;101281.41;1757362;80;21131;-91
2022/11/15 10:34:18;;;;;;;14.15;6.33;;;;;;;22.39;43.95;101273.47;1757346;80;21114;-89
2022/11/15 10:36:59;;;;;;;11.28;6.00;;;;;;;22.44;43.91;101271.95;1747320;80;21392;-93
2022/11/15 10:39:25;;;;;;;15.30;7.53;;;;;;;22.51;43.81;101273.69;1728496;81;21127;-92
2022/11/15 10:41:52;;;;;;;13.35;6.50;;;;;;;22.54;43.76;101266.11;1741823;80;21855;-90
2022/11/15 10:44:31;;;;;;;15.40;7.55;;;;;;;22.57;43.68;101272.42;1749916;80;21115;-90
2022/11/15 10:47:05;;;;;;;15.85;8.05;;;;;;;22.58;43.47;101270.45;1712170;81;21306;-89
2022/11/15 10:49:34;;;;;;;16.85;7.97;;;;;;;22.58;43.21;101265.72;1750732;79;21545;-91
2022/11/15 10:52:18;;;;;;;17.27;8.60;;;;;;;22.57;42.94;101253.02;1776840;80;21050;-90
2022/11/15 10:54:59;;;;;;;31.55;11.18;;;;;;;22.55;42.75;101260.00;1764300;80;21105;-89
2022/11/15 10:58:32;;;;;;;;;;;;;;;;;;;;;
2022/11/15 11:09:26;;;;;;;20.45;10.40;;;;;;;22.07;41.90;101247.44;1694316;84;21083;-90
2022/11/15 11:11:51;;;;;;;28.23;10.85;;;;;;;21.95;41.85;101236.94;1685135;83;28290;-90
2022/11/15 11:18:15;;;;;;;;;;;;;;;;;;;;;
2022/11/15 11:20:57;;;;;;;22.25;9.63;;;;;;;21.87;41.49;101217.72;1661297;81;21657;-90
2022/11/15 11:28:03;;;;;;;14.87;9.25;;;;;;;21.83;41.37;101212.56;1711616;81;21067;-92
2022/11/15 11:34:32;;;;;;;19.00;8.85;;;;;;;21.75;41.27;101207.78;1645419;85;21017;-92
2022/11/15 11:37:54;;;;;;;14.65;8.80;;;;;;;21.71;41.23;101195.70;1737306;80;21635;-91
2022/11/15 11:40:59;;;;;;;17.92;8.25;;;;;;;21.66;41.11;101193.63;1742579;80;21097;-92
2022/11/15 11:43:39;;;;;;;13.25;8.38;;;;;;;21.63;41.02;101187.34;1746045;80;21084;-92
2022/11/15 11:46:49;;;;;;;15.58;9.08;;;;;;;21.60;40.96;101189.36;1714586;81;21110;-90
2022/11/15 11:49:37;;;;;;;17.92;9.18;;;;;;;21.57;40.94;101183.05;1710623;80;21059;-91
2022/11/15 11:52:41;;;;;;;16.48;8.83;;;;;;;21.54;40.92;101185.89;1759586;80;21995;-90
2022/11/15 11:55:45;;;;;;;19.55;7.92;;;;;;;21.48;40.91;101184.37;1739949;80;21049;-91
2022/11/15 11:58:42;;;;;;;17.12;8.23;;;;;;;21.39;41.28;101180.71;1733709;80;21122;-91
2022/11/15 12:01:40;;;;;;;25.00;9.43;;;;;;;21.36;41.50;101176.63;1771716;80;21165;-90
2022/11/15 12:04:26;;;;;;;25.52;9.78;;;;;;;21.33;41.61;101169.53;1704784;82;21063;-90
2022/11/15 12:14:27;;;;;;;23.05;8.05;;;;;;;21.26;41.79;101160.26;1563244;90;21140;-90
2022/11/15 12:49:37;;;;;;;16.80;7.65;;;;;;;22.43;41.34;101130.86;1714833;79;125766;-80
2022/11/15 12:52:06;;;;;;;18.65;7.95;;;;;;;22.47;41.24;101124.92;1721848;81;21125;-80
2022/11/15 12:54:44;;;;;;;25.90;8.90;;;;;;;22.51;41.06;101125.91;1733016;80;21111;-80
2022/11/15 12:57:29;;;;;;;19.50;8.70;;;;;;;22.47;40.97;101122.97;1751561;81;22086;-81
2022/11/15 13:00:15;;;;;;;23.55;8.03;;;;;;;22.45;41.12;101119.69;1733111;82;21054;-80
2022/11/15 13:02:46;;;;;;;19.77;7.95;;;;;;;22.43;41.09;101114.23;1721394;82;21090;-80
2022/11/15 13:05:36;;;;;;;16.87;8.80;;;;;;;22.39;41.01;101109.09;1712274;83;21192;-82
2022/11/15 13:08:02;;;;;;;26.57;8.95;;;;;;;22.33;41.02;101100.91;1750954;81;21063;-80
2022/11/15 13:10:32;;;;;;;19.05;8.60;;;;;;;22.31;40.98;101104.59;1740984;80;21029;-83
2022/11/15 13:13:04;;;;;;;16.67;8.30;;;;;;;22.27;41.01;101093.08;1750043;80;21084;-81
2022/11/15 13:15:37;;;;;;;20.90;8.10;;;;;;;22.27;41.07;101098.63;1758608;80;21112;-81
2022/11/15 13:18:31;;;;;;;15.78;7.53;;;;;;;22.25;41.20;101096.16;1750884;81;21506;-82
2022/11/15 13:20:58;;;;;;;20.10;8.08;;;;;;;22.25;41.29;101091.19;1744634;80;20984;-82